Time;durP1;ratioP1;P1;durP2;ratioP2;P2;SDS_P1;SDS_P2;PMS_P1;PMS_P2;Temp;Humidity;BMP_temperature;BMP_pressure;BME280_temperature;BME280_humidity;BME280_pressure;Samples;Min_cycle;Max_cycle;Signal;HPM_P1;HPM_P2
2022/10/07 00:00:44;;;;;;;4.90;2.10;;;8.10;99.90;;;;;;5073451;28;20244;-81
2022/10/07 00:03:11;;;;;;;11.60;2.53;;;8.10;99.90;;;;;;5073179;28;20214;-81
2022/10/07 00:05:38;;;;;;;7.50;2.37;;;8.20;99.90;;;;;;5073346;28;20197;-81
2022/10/07 00:08:06;;;;;;;7.93;2.30;;;8.40;99.90;;;;;;5072847;28;20218;-82
2022/10/07 00:10:37;;;;;;;6.93;3.30;;;8.20;99.90;;;;;;5071138;28;20208;-81
2022/10/07 00:13:04;;;;;;;7.90;2.17;;;8.00;99.90;;;;;;5071795;28;20210;-82
2022/10/07 00:15:31;;;;;;;10.07;3.30;;;8.10;99.90;;;;;;5063283;28;20612;-81
2022/10/07 00:17:57;;;;;;;8.43;3.80;;;8.10;99.90;;;;;;5065579;28;20222;-81
2022/10/07 00:20:24;;;;;;;11.23;2.97;;;8.10;99.90;;;;;;5072488;28;20865;-81
2022/10/07 00:22:52;;;;;;;7.93;3.10;;;8.10;99.90;;;;;;5073588;28;20206;-81
2022/10/07 00:25:20;;;;;;;9.30;2.93;;;8.10;99.90;;;;;;5074365;28;20208;-81
2022/10/07 00:27:49;;;;;;;5.93;2.20;;;8.00;99.90;;;;;;5074669;28;20910;-82
2022/10/07 00:30:15;;;;;;;6.37;2.00;;;8.00;99.90;;;;;;5072867;28;20214;-81
2022/10/07 00:32:42;;;;;;;8.77;2.10;;;8.00;99.90;;;;;;5074594;28;20251;-81
2022/10/07 00:35:09;;;;;;;7.53;2.80;;;8.00;99.90;;;;;;5073222;28;20202;-82
2022/10/07 00:37:41;;;;;;;6.77;2.07;;;8.00;99.90;;;;;;5074246;28;20213;-82
2022/10/07 00:40:10;;;;;;;6.77;1.87;;;8.10;99.90;;;;;;5062005;28;20301;-81
2022/10/07 00:42:39;;;;;;;7.30;2.30;;;8.00;99.90;;;;;;5062484;28;20197;-81
2022/10/07 00:45:12;;;;;;;6.23;2.03;;;7.90;99.90;;;;;;5071799;28;20267;-81
2022/10/07 00:47:40;;;;;;;7.50;1.93;;;7.80;99.90;;;;;;5073560;28;20268;-81
2022/10/07 00:50:11;;;;;;;9.03;2.37;;;7.80;99.90;;;;;;5072913;28;20347;-81
2022/10/07 00:52:42;;;;;;;5.47;2.93;;;7.70;99.90;;;;;;5073231;28;20202;-81
2022/10/07 00:55:12;;;;;;;3.93;1.63;;;7.70;99.90;;;;;;5068780;28;20237;-81
2022/10/07 00:57:41;;;;;;;6.10;1.90;;;7.60;99.90;;;;;;5071797;28;20211;-81
2022/10/07 01:00:09;;;;;;;5.93;2.00;;;7.60;99.90;;;;;;5071806;28;20198;-81
2022/10/07 01:02:37;;;;;;;5.13;1.73;;;7.50;99.90;;;;;;5053891;28;20199;-81
2022/10/07 01:05:06;;;;;;;4.10;1.90;;;7.50;99.90;;;;;;5057436;28;20222;-81
2022/10/07 01:07:33;;;;;;;6.50;1.90;;;7.40;99.90;;;;;;5073758;28;20367;-81
2022/10/07 01:10:02;;;;;;;6.73;2.27;;;7.40;99.90;;;;;;5072767;28;20210;-81
2022/10/07 01:12:36;;;;;;;6.97;2.17;;;7.30;99.90;;;;;;5072575;28;20206;-81
2022/10/07 01:15:11;;;;;;;5.77;2.30;;;7.30;99.90;;;;;;5066584;28;20226;-81
2022/10/07 01:17:45;;;;;;;8.37;2.87;;;7.30;99.90;;;;;;5065880;28;20220;-81
2022/10/07 01:20:20;;;;;;;7.20;2.60;;;7.20;99.90;;;;;;5075671;28;20856;-81
2022/10/07 01:22:58;;;;;;;9.57;3.13;;;7.30;99.90;;;;;;5076251;28;20204;-81
2022/10/07 01:25:34;;;;;;;6.20;2.77;;;7.40;99.90;;;;;;5076598;28;20237;-81
2022/10/07 01:28:06;;;;;;;9.27;3.07;;;7.30;99.90;;;;;;5075373;28;20227;-81
2022/10/07 01:30:39;;;;;;;6.00;2.10;;;7.10;99.90;;;;;;5074108;28;20194;-81
2022/10/07 01:33:12;;;;;;;7.07;2.50;;;7.10;99.90;;;;;;5077045;28;20554;-81
2022/10/07 01:35:41;;;;;;;6.20;2.33;;;6.70;99.90;;;;;;5076381;28;20194;-81
2022/10/07 01:38:10;;;;;;;5.63;2.20;;;6.70;99.90;;;;;;5074647;28;20232;-81
2022/10/07 01:40:40;;;;;;;6.47;2.60;;;6.70;99.90;;;;;;5076487;28;20757;-81
2022/10/07 01:43:08;;;;;;;5.73;1.97;;;6.70;99.90;;;;;;5074769;28;20282;-81
2022/10/07 01:45:40;;;;;;;7.03;2.40;;;6.50;99.90;;;;;;5077039;28;20564;-81
2022/10/07 01:48:07;;;;;;;8.10;2.30;;;6.50;99.90;;;;;;5074735;28;20226;-81
2022/10/07 01:50:35;;;;;;;4.13;2.20;;;6.40;99.90;;;;;;5076298;28;20206;-81
2022/10/07 01:53:16;;;;;;;4.57;2.27;;;6.40;99.90;;;;;;5069701;28;20202;-81
2022/10/07 01:55:55;;;;;;;8.97;2.80;;;6.50;99.90;;;;;;5065025;28;20647;-81
2022/10/07 01:58:38;;;;;;;7.33;2.53;;;6.60;99.90;;;;;;5073758;28;20320;-81
2022/10/07 02:01:15;;;;;;;8.63;2.83;;;6.70;99.90;;;;;;5064679;28;20190;-81
2022/10/07 02:04:07;;;;;;;7.40;2.40;;;6.40;99.90;;;;;;5062118;28;20273;-81
2022/10/07 02:06:42;;;;;;;8.57;2.63;;;6.60;99.90;;;;;;5075137;28;20597;-81
2022/10/07 02:09:18;;;;;;;7.20;2.33;;;6.50;99.90;;;;;;5075123;28;20229;-81
2022/10/07 02:11:51;;;;;;;4.87;2.87;;;6.50;99.90;;;;;;5073520;28;20216;-82
2022/10/07 02:14:23;;;;;;;4.20;2.57;;;6.40;99.90;;;;;;5075708;28;20202;-81
2022/10/07 02:16:52;;;;;;;6.70;2.40;;;6.50;99.90;;;;;;5075980;28;20218;-81
2022/10/07 02:19:23;;;;;;;4.00;2.30;;;6.50;99.90;;;;;;5076001;28;20217;-81
2022/10/07 02:21:52;;;;;;;4.87;2.57;;;6.40;99.90;;;;;;5074760;28;20194;-81
2022/10/07 02:24:23;;;;;;;6.93;2.40;;;6.20;99.90;;;;;;5074518;28;20875;-81
2022/10/07 02:26:51;;;;;;;3.57;1.97;;;6.30;99.90;;;;;;5074262;28;20214;-81
2022/10/07 02:29:21;;;;;;;8.33;2.80;;;6.40;99.90;;;;;;5073071;28;20863;-81
2022/10/07 02:31:50;;;;;;;9.73;2.77;;;6.30;99.90;;;;;;5074808;28;20194;-81
2022/10/07 02:34:21;;;;;;;5.77;2.70;;;6.20;99.90;;;;;;5075636;28;20204;-81
2022/10/07 02:36:52;;;;;;;4.73;2.27;;;6.30;99.90;;;;;;5066540;28;20222;-81
2022/10/07 02:39:20;;;;;;;3.87;2.07;;;6.20;99.90;;;;;;5074299;28;20209;-81
2022/10/07 02:41:51;;;;;;;5.67;2.70;;;6.20;99.90;;;;;;5066567;28;20243;-81
2022/10/07 02:44:24;;;;;;;4.87;2.20;;;6.30;99.90;;;;;;5069326;28;20222;-81
2022/10/07 02:46:54;;;;;;;5.87;2.27;;;6.40;99.90;;;;;;5062586;28;20284;-81
2022/10/07 02:49:23;;;;;;;9.93;2.87;;;6.50;99.90;;;;;;5063048;28;20204;-81
2022/10/07 02:51:56;;;;;;;4.97;2.63;;;6.50;99.90;;;;;;5055366;28;20578;-81
2022/10/07 02:54:27;;;;;;;5.07;3.17;;;6.40;99.90;;;;;;5070077;28;20193;-81
2022/10/07 02:56:55;;;;;;;6.17;2.50;;;6.20;99.90;;;;;;5061194;28;20218;-81
2022/10/07 02:59:25;;;;;;;7.80;2.53;;;5.90;99.90;;;;;;5067564;28;20202;-81
2022/10/07 03:01:55;;;;;;;7.80;3.13;;;5.90;99.90;;;;;;5074945;28;20208;-81
2022/10/07 03:04:22;;;;;;;6.03;2.60;;;5.90;99.90;;;;;;5072971;28;20206;-81
2022/10/07 03:06:49;;;;;;;4.97;2.90;;;5.90;99.90;;;;;;5073282;28;20260;-81
2022/10/07 03:09:16;;;;;;;4.90;2.70;;;5.90;99.90;;;;;;5074067;28;20593;-81
2022/10/07 03:11:43;;;;;;;5.43;2.70;;;5.80;99.90;;;;;;5074084;28;20198;-81
2022/10/07 03:14:10;;;;;;;6.83;2.90;;;5.80;99.90;;;;;;5073007;28;20213;-81
2022/10/07 03:16:38;;;;;;;5.80;3.13;;;5.90;99.90;;;;;;5075346;28;20229;-81
2022/10/07 03:19:05;;;;;;;7.37;3.20;;;5.80;99.90;;;;;;5073948;28;20227;-81
2022/10/07 03:21:33;;;;;;;5.23;2.80;;;5.80;99.90;;;;;;5072688;28;20210;-82
2022/10/07 03:24:03;;;;;;;7.57;3.17;;;5.90;99.90;;;;;;5075013;28;20203;-81
2022/10/07 03:26:30;;;;;;;7.33;2.90;;;6.10;99.90;;;;;;5074651;28;20233;-82
2022/10/07 03:28:58;;;;;;;4.30;2.80;;;6.10;99.90;;;;;;5073056;28;20190;-81
2022/10/07 03:31:26;;;;;;;12.20;3.57;;;5.90;99.90;;;;;;5065083;28;20891;-80
2022/10/07 03:33:55;;;;;;;6.40;3.13;;;6.00;99.90;;;;;;5053390;28;20425;-81
2022/10/07 03:36:22;;;;;;;7.77;2.97;;;6.10;99.90;;;;;;5054536;28;20596;-81
2022/10/07 03:38:49;;;;;;;8.00;3.33;;;6.10;99.90;;;;;;5063010;28;20214;-80
2022/10/07 03:41:16;;;;;;;7.03;3.10;;;6.10;99.90;;;;;;5074326;28;20228;-81
2022/10/07 03:43:43;;;;;;;4.93;3.03;;;6.10;99.90;;;;;;5074825;28;20209;-80
2022/10/07 03:46:10;;;;;;;4.83;2.80;;;6.00;99.90;;;;;;5073857;28;20304;-80
2022/10/07 03:48:37;;;;;;;5.93;2.60;;;6.00;99.90;;;;;;5074826;28;20323;-81
2022/10/07 03:51:05;;;;;;;12.13;3.67;;;6.10;99.90;;;;;;5073356;28;20198;-80
2022/10/07 03:53:32;;;;;;;8.43;2.97;;;6.10;99.90;;;;;;5074721;28;20226;-81
2022/10/07 03:55:59;;;;;;;6.07;2.87;;;6.10;99.90;;;;;;5074763;28;20206;-81
2022/10/07 03:58:25;;;;;;;6.90;3.07;;;6.10;99.90;;;;;;5074801;28;20213;-81
2022/10/07 04:00:52;;;;;;;6.73;3.03;;;6.00;99.90;;;;;;5073023;28;20868;-81
2022/10/07 04:03:19;;;;;;;8.73;3.63;;;6.10;99.90;;;;;;5073772;28;20202;-80
2022/10/07 04:05:59;;;;;;;8.03;2.93;;;6.00;99.90;;;;;;5072622;28;20229;-80
2022/10/07 04:08:28;;;;;;;7.97;2.90;;;6.00;99.90;;;;;;5074777;28;20210;-81
2022/10/07 04:10:55;;;;;;;8.90;2.87;;;6.10;99.90;;;;;;5072734;28;20659;-80
2022/10/07 04:13:22;;;;;;;5.10;2.87;;;6.00;99.90;;;;;;5073478;28;20701;-80
2022/10/07 04:15:49;;;;;;;5.63;3.17;;;6.10;99.90;;;;;;5066491;28;20639;-80
2022/10/07 04:18:15;;;;;;;9.87;3.20;;;6.10;99.90;;;;;;5073697;28;20217;-81
2022/10/07 04:20:42;;;;;;;7.30;3.10;;;6.00;99.90;;;;;;5069581;28;20684;-81
2022/10/07 04:23:09;;;;;;;10.43;3.87;;;6.20;99.90;;;;;;5060596;28;20210;-81
2022/10/07 04:25:42;;;;;;;9.50;4.47;;;6.30;99.90;;;;;;5074008;28;20339;-81
2022/10/07 04:28:16;;;;;;;11.73;5.57;;;6.30;99.90;;;;;;5074373;28;20226;-81
2022/10/07 04:30:43;;;;;;;11.03;5.57;;;6.10;99.90;;;;;;5073383;28;20209;-80
2022/10/07 04:33:11;;;;;;;6.70;3.17;;;6.00;99.90;;;;;;5068972;28;20207;-80
2022/10/07 04:35:39;;;;;;;7.80;3.00;;;6.00;99.90;;;;;;5061119;28;20195;-81
2022/10/07 04:38:09;;;;;;;4.80;2.87;;;5.90;99.90;;;;;;5064369;28;20254;-81
2022/10/07 04:40:40;;;;;;;7.37;2.80;;;5.80;99.90;;;;;;5053094;28;20201;-81
2022/10/07 04:43:22;;;;;;;8.50;2.70;;;5.70;99.90;;;;;;5060649;28;20206;-81
2022/10/07 04:45:51;;;;;;;7.33;2.80;;;5.80;99.90;;;;;;5072280;28;20227;-81
2022/10/07 04:48:20;;;;;;;7.30;2.80;;;5.90;99.90;;;;;;5067716;28;20210;-81
2022/10/07 04:50:47;;;;;;;7.13;2.87;;;5.90;99.90;;;;;;5070827;28;20217;-81
2022/10/07 04:53:15;;;;;;;7.43;3.50;;;6.00;99.90;;;;;;5064242;28;20206;-81
2022/10/07 04:55:45;;;;;;;5.33;2.30;;;5.90;99.90;;;;;;5078921;28;20572;-81
2022/10/07 04:58:12;;;;;;;5.60;2.50;;;5.80;99.90;;;;;;5078824;28;20240;-81
2022/10/07 05:00:43;;;;;;;4.57;2.60;;;5.60;99.90;;;;;;5068271;28;20206;-81
2022/10/07 05:03:09;;;;;;;8.67;2.77;;;5.50;99.90;;;;;;5063773;28;20207;-82
2022/10/07 05:05:38;;;;;;;3.70;2.67;;;5.50;99.90;;;;;;5075046;28;20712;-81
2022/10/07 05:08:06;;;;;;;8.83;3.33;;;5.60;99.90;;;;;;5072812;28;20299;-81
2022/10/07 05:10:35;;;;;;;7.00;2.90;;;5.90;99.90;;;;;;5076310;28;20578;-81
2022/10/07 05:13:04;;;;;;;10.40;4.80;;;6.00;99.90;;;;;;5075797;28;20208;-81
2022/10/07 05:15:31;;;;;;;9.43;5.13;;;6.00;99.90;;;;;;5075122;28;20574;-80
2022/10/07 05:17:58;;;;;;;7.43;2.60;;;6.10;99.90;;;;;;5072389;28;20222;-81
2022/10/07 05:20:25;;;;;;;7.20;2.73;;;6.20;99.90;;;;;;5070133;28;20195;-81
2022/10/07 05:22:52;;;;;;;6.07;3.17;;;6.10;99.90;;;;;;5065331;28;20203;-81
2022/10/07 05:25:19;;;;;;;6.07;3.17;;;6.10;99.90;;;;;;5066718;28;20729;-82
2022/10/07 05:27:50;;;;;;;10.13;3.30;;;6.50;99.90;;;;;;5067725;28;20276;-82
2022/10/07 05:30:19;;;;;;;7.30;2.80;;;6.60;99.90;;;;;;5072264;28;20202;-81
2022/10/07 05:32:45;;;;;;;8.73;3.20;;;6.80;99.90;;;;;;5067586;28;20203;-81
2022/10/07 05:35:12;;;;;;;4.10;2.63;;;6.90;99.90;;;;;;5069370;28;20570;-82
2022/10/07 05:37:39;;;;;;;8.23;2.90;;;7.10;99.90;;;;;;5064041;28;20290;-81
2022/10/07 05:40:07;;;;;;;8.70;2.73;;;7.20;99.90;;;;;;5065942;28;20210;-81
2022/10/07 05:42:33;;;;;;;6.17;2.80;;;7.40;99.90;;;;;;5073272;28;20544;-80
2022/10/07 05:45:03;;;;;;;6.37;3.00;;;7.80;99.90;;;;;;5072727;28;20225;-80
2022/10/07 05:47:33;;;;;;;10.77;2.70;;;7.60;99.90;;;;;;5068565;28;20671;-80
2022/10/07 05:50:00;;;;;;;6.53;2.57;;;7.80;99.90;;;;;;5065541;28;20224;-81
2022/10/07 05:52:27;;;;;;;9.50;2.30;;;7.90;99.90;;;;;;5070113;28;20223;-82
2022/10/07 05:54:53;;;;;;;8.07;2.53;;;8.00;99.90;;;;;;5068257;28;20213;-81
2022/10/07 05:57:21;;;;;;;6.80;2.57;;;8.00;99.90;;;;;;5065951;28;20225;-81
2022/10/07 05:59:48;;;;;;;9.13;2.33;;;8.10;99.90;;;;;;5062428;28;20584;-81
2022/10/07 06:02:17;;;;;;;8.37;2.20;;;8.10;99.90;;;;;;5070046;28;20245;-82
2022/10/07 06:04:46;;;;;;;5.13;2.07;;;8.00;99.90;;;;;;5070389;28;20261;-82
2022/10/07 06:07:14;;;;;;;3.63;2.27;;;8.00;99.90;;;;;;5070350;28;20722;-81
2022/10/07 06:15:10;;;;;;;5.90;2.50;;;8.10;99.90;;;;;;5069086;28;20225;-82
2022/10/07 06:17:40;;;;;;;6.53;2.40;;;8.10;99.90;;;;;;5067930;28;20226;-81
2022/10/07 06:20:10;;;;;;;8.17;2.40;;;8.30;99.90;;;;;;5063257;28;20361;-81
2022/10/07 06:22:36;;;;;;;7.70;2.60;;;8.10;99.90;;;;;;5064890;28;20285;-82
2022/10/07 06:25:04;;;;;;;5.73;2.10;;;8.10;99.90;;;;;;5065945;28;20548;-81
2022/10/07 06:27:30;;;;;;;6.17;2.30;;;8.10;99.90;;;;;;5065407;28;20752;-81
2022/10/07 06:29:57;;;;;;;5.33;2.40;;;8.10;99.90;;;;;;5066772;28;20203;-81
2022/10/07 06:32:24;;;;;;;6.23;2.10;;;8.00;99.90;;;;;;5074558;28;20792;-80
2022/10/07 06:34:51;;;;;;;5.20;2.10;;;8.00;99.90;;;;;;5075461;28;20225;-79
2022/10/07 06:37:21;;;;;;;4.10;2.10;;;8.00;99.90;;;;;;5073382;28;20313;-81
2022/10/07 06:39:48;;;;;;;6.50;2.30;;;8.00;99.90;;;;;;5071720;28;20285;-80
2022/10/07 06:42:15;;;;;;;8.27;2.23;;;8.00;99.90;;;;;;5065466;28;20209;-80
2022/10/07 06:44:41;;;;;;;8.30;2.10;;;7.90;99.90;;;;;;5061789;28;20231;-80
2022/10/07 06:47:08;;;;;;;5.83;2.13;;;8.00;99.90;;;;;;5068165;28;20260;-81
2022/10/07 06:49:35;;;;;;;5.47;2.07;;;8.10;99.90;;;;;;5062018;28;20305;-80
2022/10/07 06:52:02;;;;;;;7.83;3.03;;;8.30;99.90;;;;;;5064682;28;20282;-80
2022/10/07 06:54:30;;;;;;;8.97;2.37;;;8.30;99.90;;;;;;5067100;28;20667;-79
2022/10/07 06:56:57;;;;;;;5.87;2.10;;;8.90;99.90;;;;;;5063987;28;20241;-79
2022/10/07 06:59:24;;;;;;;4.57;2.10;;;9.10;99.90;;;;;;5059172;28;20202;-80
2022/10/07 07:01:51;;;;;;;8.13;2.20;;;9.10;99.90;;;;;;5062791;28;20199;-80
2022/10/07 07:04:18;;;;;;;6.10;2.40;;;9.00;99.90;;;;;;5058169;28;20205;-78
2022/10/07 07:06:45;;;;;;;8.73;2.53;;;9.10;99.90;;;;;;5067933;28;20307;-80
2022/10/07 07:09:12;;;;;;;7.43;2.17;;;9.00;99.90;;;;;;5066405;28;20293;-81
2022/10/07 07:11:42;;;;;;;7.20;2.60;;;9.00;99.90;;;;;;5065369;28;20257;-80
2022/10/07 07:14:11;;;;;;;7.03;4.30;;;9.50;99.90;;;;;;5066227;28;20206;-81
2022/10/07 07:16:39;;;;;;;5.10;2.23;;;9.50;99.90;;;;;;5066025;28;20690;-81
2022/10/07 07:19:07;;;;;;;8.33;2.50;;;9.40;99.90;;;;;;5066494;28;20209;-81
2022/10/07 07:21:37;;;;;;;6.00;2.43;;;9.40;99.90;;;;;;5061891;28;20206;-81
2022/10/07 07:24:05;;;;;;;9.70;2.13;;;9.30;99.90;;;;;;5067014;28;20214;-81
2022/10/07 07:26:32;;;;;;;3.20;1.80;;;9.50;99.90;;;;;;5066654;28;20223;-81
2022/10/07 07:29:02;;;;;;;12.60;2.53;;;9.90;99.90;;;;;;5067693;28;20333;-81
2022/10/07 07:31:32;;;;;;;5.10;1.60;;;9.90;99.90;;;;;;5060879;28;20250;-84
2022/10/07 07:34:01;;;;;;;9.33;1.90;;;9.90;99.90;;;;;;5068765;28;20238;-81
2022/10/07 07:36:29;;;;;;;5.83;2.13;;;9.80;99.90;;;;;;5068125;28;20291;-79
2022/10/07 07:38:57;;;;;;;6.73;2.13;;;9.90;99.90;;;;;;5064562;28;20207;-79
2022/10/07 07:41:26;;;;;;;5.50;1.83;;;10.00;99.90;;;;;;5068359;28;20682;-80
2022/10/07 07:43:55;;;;;;;5.40;2.17;;;10.00;99.90;;;;;;5068095;28;20286;-80
2022/10/07 07:46:25;;;;;;;6.00;2.07;;;10.10;99.90;;;;;;5073302;28;20320;-80
2022/10/07 07:48:53;;;;;;;6.77;1.80;;;10.00;99.90;;;;;;5066761;28;20286;-80
2022/10/07 07:51:21;;;;;;;12.90;5.67;;;10.20;99.90;;;;;;5068881;28;20218;-80
2022/10/07 07:53:49;;;;;;;13.17;5.10;;;10.30;99.90;;;;;;5062741;28;20207;-80
2022/10/07 07:56:16;;;;;;;19.30;2.17;;;10.40;99.90;;;;;;5066176;28;20738;-80
2022/10/07 07:58:43;;;;;;;5.90;2.37;;;10.80;99.90;;;;;;5065637;28;20269;-80
2022/10/07 08:01:13;;;;;;;6.77;1.83;;;10.80;99.90;;;;;;5064664;28;20203;-80
2022/10/07 08:03:45;;;;;;;7.30;1.97;;;10.80;99.90;;;;;;5067592;28;20240;-80
2022/10/07 08:06:12;;;;;;;7.07;1.90;;;11.10;64.80;;;;;;5068836;28;20226;-80
2022/10/07 08:08:42;;;;;;;5.87;2.00;;;11.30;1.00;;;;;;5067919;28;20195;-80
2022/10/07 08:11:09;;;;;;;9.43;2.10;;;11.20;1.00;;;;;;5065134;28;20218;-80
2022/10/07 08:13:38;;;;;;;5.93;1.97;;;11.30;1.00;;;;;;5069043;28;20661;-81
2022/10/07 08:16:06;;;;;;;7.20;1.90;;;11.40;1.00;;;;;;5064921;28;20195;-80
2022/10/07 08:18:33;;;;;;;9.10;2.40;;;11.40;1.00;;;;;;5070437;28;20221;-81
2022/10/07 08:21:04;;;;;;;4.80;1.80;;;11.50;1.00;;;;;;5064414;28;20596;-80
2022/10/07 08:23:31;;;;;;;8.83;2.27;;;11.70;1.00;;;;;;5068551;28;20285;-80
2022/10/07 08:25:59;;;;;;;4.37;1.60;;;11.70;1.00;;;;;;5061183;28;20276;-82
2022/10/07 08:28:27;;;;;;;10.03;1.97;;;11.70;1.00;;;;;;5067339;28;20210;-81
2022/10/07 08:30:55;;;;;;;5.73;1.90;;;11.70;1.00;;;;;;5063387;28;20199;-80
2022/10/07 08:33:22;;;;;;;6.23;1.73;;;11.70;1.00;;;;;;5062121;28;20198;-81
2022/10/07 08:35:50;;;;;;;9.20;1.97;;;11.90;1.00;;;;;;5067124;28;20657;-81
2022/10/07 08:38:18;;;;;;;8.03;1.87;;;11.90;1.00;;;;;;5069913;28;20202;-81
2022/10/07 08:40:49;;;;;;;7.13;1.93;;;12.00;1.00;;;;;;5068804;28;20199;-81
2022/10/07 08:43:18;;;;;;;4.87;1.97;;;12.00;1.00;;;;;;5060233;28;20202;-81
2022/10/07 08:45:46;;;;;;;6.57;1.87;;;12.20;1.00;;;;;;5070883;28;20220;-81
2022/10/07 08:48:20;;;;;;;7.30;1.77;;;12.20;1.00;;;;;;5065640;28;20708;-81
2022/10/07 08:50:55;;;;;;;5.00;1.77;;;12.50;1.00;;;;;;5061968;28;20202;-81
2022/10/07 08:53:29;;;;;;;7.93;2.47;;;12.50;99.90;;;;;;5070671;28;20202;-81
2022/10/07 08:56:01;;;;;;;6.70;1.73;;;12.70;99.90;;;;;;5062867;28;20578;-81
2022/10/07 08:58:42;;;;;;;7.13;2.10;;;12.70;1.00;;;;;;5068751;28;20202;-80
2022/10/07 09:01:21;;;;;;;8.20;1.87;;;12.80;99.90;;;;;;5069197;28;20213;-81
2022/10/07 09:04:01;;;;;;;6.67;1.83;;;12.90;1.00;;;;;;5065852;28;20236;-85
2022/10/07 09:06:31;;;;;;;6.97;2.20;;;13.30;1.00;;;;;;5058100;28;20659;-81
2022/10/07 09:09:04;;;;;;;5.40;2.03;;;13.50;1.00;;;;;;5065607;28;20628;-81
2022/10/07 09:11:32;;;;;;;7.37;2.87;;;13.70;99.90;;;;;;5061373;28;20209;-81
2022/10/07 09:14:04;;;;;;;7.37;1.57;;;13.90;99.90;;;;;;5062513;28;20282;-81
2022/10/07 09:16:35;;;;;;;3.80;1.33;;;14.00;1.00;;;;;;5056984;28;20229;-81
2022/10/07 09:19:04;;;;;;;4.23;1.60;;;14.20;99.90;;;;;;5067261;28;20285;-81
2022/10/07 09:21:37;;;;;;;8.47;1.63;;;14.10;1.00;;;;;;5065699;28;20199;-81
2022/10/07 09:24:18;;;;;;;2.77;1.27;;;14.20;1.00;;;;;;5066293;28;20233;-81
2022/10/07 09:26:45;;;;;;;4.70;2.00;;;14.50;50.10;;;;;;5067647;28;20317;-81
2022/10/07 09:29:12;;;;;;;11.33;1.70;;;14.50;99.90;;;;;;5062993;28;20252;-81
2022/10/07 09:31:39;;;;;;;7.03;1.90;;;14.60;99.80;;;;;;5061480;28;20285;-81
2022/10/07 09:34:18;;;;;;;5.57;1.83;;;14.80;10.00;;;;;;5070813;28;20590;-80
2022/10/07 09:37:13;;;;;;;8.13;2.00;;;15.00;1.00;;;;;;5062566;28;20742;-81
2022/10/07 09:39:44;;;;;;;4.97;1.40;;;15.10;1.00;;;;;;5066934;28;20256;-82
2022/10/07 09:42:25;;;;;;;6.70;1.60;;;15.30;1.00;;;;;;5069532;28;20210;-82
2022/10/07 09:44:53;;;;;;;6.53;1.70;;;15.50;1.00;;;;;;5067580;28;20201;-81
2022/10/07 09:47:23;;;;;;;5.53;1.40;;;15.60;1.00;;;;;;5068079;28;20314;-81
2022/10/07 09:49:53;;;;;;;8.20;1.57;;;16.00;1.00;;;;;;5071040;28;20604;-82
2022/10/07 09:52:22;;;;;;;6.55;1.70;;;16.20;1.00;;;;;;5068218;28;20201;-82
2022/10/07 09:54:53;;;;;;;6.70;1.90;;;16.40;1.00;;;;;;5067234;28;20575;-82
2022/10/07 09:57:29;;;;;;;6.97;2.17;;;16.70;1.00;;;;;;5069273;28;20230;-83
2022/10/07 10:00:24;;;;;;;5.72;1.80;;;16.80;99.90;;;;;;5071659;28;20190;-82
2022/10/07 10:02:54;;;;;;;5.60;1.77;;;16.80;99.90;;;;;;5063319;28;20229;-83
2022/10/07 10:05:24;;;;;;;6.20;1.85;;;17.10;1.00;;;;;;5070221;28;20209;-82
2022/10/07 10:07:58;;;;;;;3.67;1.80;;;17.10;99.90;;;;;;5066950;28;20222;-82
2022/10/07 10:10:29;;;;;;;9.60;1.52;;;17.10;99.90;;;;;;5070198;28;20635;-82
2022/10/07 10:12:58;;;;;;;5.35;1.65;;;17.30;49.00;;;;;;5066278;28;20252;-82
2022/10/07 10:15:39;;;;;;;4.25;1.52;;;17.50;1.00;;;;;;5070711;28;20206;-82
2022/10/07 10:18:34;;;;;;;7.35;1.75;;;17.30;1.00;;;;;;5070479;28;20241;-82
2022/10/07 10:21:28;;;;;;;9.88;2.28;;;17.70;74.70;;;;;;5066297;28;20195;-83
2022/10/07 10:23:58;;;;;;;7.68;1.80;;;17.50;1.00;;;;;;5041059;28;20290;-82
2022/10/07 10:26:54;;;;;;;5.82;1.58;;;17.40;99.90;;;;;;5069706;28;20218;-83
2022/10/07 10:29:40;;;;;;;6.15;1.80;;;17.50;1.00;;;;;;5071210;28;20675;-83
2022/10/07 10:32:35;;;;;;;8.18;2.05;;;17.90;1.00;;;;;;5070528;28;20202;-82
2022/10/07 10:35:09;;;;;;;8.75;2.40;;;17.90;1.00;;;;;;5063815;28;20210;-83
2022/10/07 10:37:57;;;;;;;7.50;1.75;;;18.40;1.00;;;;;;5070136;28;20222;-82
2022/10/07 10:40:33;;;;;;;6.10;2.10;;;18.20;90.50;;;;;;5067405;28;20275;-83
2022/10/07 10:43:15;;;;;;;5.75;1.95;;;18.30;1.00;;;;;;5069701;28;20225;-83
2022/10/07 10:45:52;;;;;;;4.40;1.92;;;18.40;1.00;;;;;;5063841;28;20327;-83
2022/10/07 10:48:29;;;;;;;7.78;1.92;;;18.70;1.00;;;;;;5069535;28;20213;-82
2022/10/07 10:51:01;;;;;;;7.47;1.55;;;18.50;1.00;;;;;;5063404;28;20642;-81
2022/10/07 10:53:42;;;;;;;7.35;2.00;;;18.70;1.00;;;;;;5073760;28;20614;-83
2022/10/07 10:56:27;;;;;;;6.65;1.90;;;18.70;1.00;;;;;;5057420;28;20232;-83
2022/10/07 10:59:09;;;;;;;8.52;1.77;;;18.80;1.00;;;;;;5070800;28;20260;-83
2022/10/07 11:01:39;;;;;;;4.38;1.60;;;18.90;1.00;;;;;;5076637;28;20202;-83
2022/10/07 11:04:26;;;;;;;4.70;1.67;;;18.90;1.00;;;;;;5073836;28;20209;-83
2022/10/07 11:06:59;;;;;;;6.78;1.90;;;18.90;1.00;;;;;;5058304;28;20315;-83
2022/10/07 11:09:33;;;;;;;3.35;1.10;;;19.20;1.00;;;;;;5074108;28;20245;-83
2022/10/07 11:12:04;;;;;;;8.18;1.70;;;18.70;1.00;;;;;;5057810;28;20241;-83
2022/10/07 11:14:46;;;;;;;4.88;1.13;;;19.00;1.00;;;;;;5056874;28;20203;-84
2022/10/07 11:17:15;;;;;;;6.55;1.70;;;18.70;1.00;;;;;;5077374;28;20283;-82
2022/10/07 11:19:55;;;;;;;5.63;2.05;;;18.50;1.00;;;;;;5077785;28;20198;-83
2022/10/07 11:22:32;;;;;;;5.82;1.95;;;18.90;1.00;;;;;;5076479;28;20233;-83
2022/10/07 11:25:08;;;;;;;6.05;1.60;;;19.10;1.00;;;;;;5069105;28;20202;-83
2022/10/07 11:27:35;;;;;;;8.10;1.75;;;19.20;1.00;;;;;;5056784;28;20252;-82
2022/10/07 11:30:15;;;;;;;5.28;1.73;;;19.00;1.00;;;;;;5057448;28;20274;-83
2022/10/07 11:32:49;;;;;;;5.60;1.63;;;19.30;1.00;;;;;;5057584;28;20217;-83
2022/10/07 11:35:24;;;;;;;4.57;1.50;;;19.40;1.00;;;;;;5057025;28;20702;-83
2022/10/07 11:37:57;;;;;;;4.53;1.52;;;19.50;1.00;;;;;;5057579;28;20229;-84
2022/10/07 11:40:26;;;;;;;6.95;1.40;;;19.50;1.00;;;;;;5057535;28;20206;-83
2022/10/07 11:42:57;;;;;;;7.00;1.98;;;19.20;1.00;;;;;;5057317;28;20685;-83
2022/10/07 11:45:29;;;;;;;9.38;1.92;;;19.50;1.00;;;;;;5056630;28;20203;-83
2022/10/07 11:47:59;;;;;;;8.15;2.25;;;19.60;1.00;;;;;;5059106;28;20238;-83
2022/10/07 11:50:30;;;;;;;5.60;1.90;;;19.40;1.00;;;;;;5073236;28;20571;-83
2022/10/07 11:53:03;;;;;;;5.75;1.83;;;19.50;1.00;;;;;;5076347;28;20213;-83
2022/10/07 11:55:35;;;;;;;4.88;1.50;;;19.70;1.00;;;;;;5076924;28;20193;-83
2022/10/07 11:58:05;;;;;;;7.85;2.20;;;19.60;1.00;;;;;;5077326;28;20225;-83
2022/10/07 12:00:34;;;;;;;5.05;1.73;;;19.60;1.00;;;;;;5076444;28;20264;-83
2022/10/07 12:03:12;;;;;;;8.98;1.77;;;19.20;1.00;;;;;;5076515;28;20198;-83
2022/10/07 12:06:12;;;;;;;4.78;1.70;;;19.30;1.00;;;;;;5076581;28;20216;-83
2022/10/07 12:08:40;;;;;;;5.03;1.98;;;19.40;1.00;;;;;;5075982;28;20309;-82
2022/10/07 12:11:43;;;;;;;7.85;2.17;;;19.30;1.00;;;;;;5076281;28;20216;-83
2022/10/07 12:14:31;;;;;;;9.70;2.33;;;19.70;1.00;;;;;;5070758;28;20225;-82
2022/10/07 12:17:18;;;;;;;5.40;1.70;;;20.00;1.00;;;;;;5076271;28;20214;-83
2022/10/07 12:19:46;;;;;;;7.53;1.90;;;19.90;1.00;;;;;;5075558;28;20212;-83
2022/10/07 12:22:17;;;;;;;7.07;1.67;;;19.60;1.00;;;;;;5075707;28;20674;-83
2022/10/07 12:25:06;;;;;;;7.07;1.67;;;19.60;1.00;;;;;;5075813;28;20206;-82
2022/10/07 12:27:35;;;;;;;6.10;2.50;;;19.70;1.00;;;;;;5075902;28;20249;-83
2022/10/07 12:30:02;;;;;;;10.13;1.70;;;19.80;1.00;;;;;;5075363;28;20685;-82
2022/10/07 12:32:56;;;;;;;7.47;1.95;;;19.90;1.00;;;;;;5075479;28;20271;-83
2022/10/07 12:35:56;;;;;;;5.70;1.73;;;20.00;1.00;;;;;;5075756;28;20290;-82
2022/10/07 12:38:26;;;;;;;12.23;2.67;;;19.90;1.00;;;;;;5074787;28;20843;-83
2022/10/07 12:41:23;;;;;;;8.25;2.13;;;20.30;1.00;;;;;;5075139;28;20697;-82
2022/10/07 12:43:57;;;;;;;5.03;2.05;;;20.30;1.00;;;;;;5065473;28;20210;-83
2022/10/07 12:46:26;;;;;;;9.27;2.60;;;20.30;1.00;;;;;;5075031;28;20589;-82
2022/10/07 12:49:01;;;;;;;6.10;1.67;;;19.80;1.00;;;;;;5075610;28;20592;-82
2022/10/07 12:51:38;;;;;;;5.47;1.85;;;19.90;1.00;;;;;;5071344;28;20205;-82
2022/10/07 12:54:11;;;;;;;5.78;1.90;;;20.20;1.00;;;;;;5075202;28;20256;-82
2022/10/07 12:56:43;;;;;;;9.07;2.22;;;20.20;1.00;;;;;;5075014;28;20226;-83
2022/10/07 12:59:49;;;;;;;6.10;1.75;;;20.30;1.00;;;;;;5074699;28;20202;-82
2022/10/07 13:03:02;;;;;;;5.30;1.65;;;20.30;1.00;;;;;;5068898;28;20684;-82
2022/10/07 13:06:02;;;;;;;9.55;2.13;;;19.80;1.00;;;;;;5072038;28;20269;-82
2022/10/07 13:09:03;;;;;;;5.53;2.00;;;20.10;1.00;;;;;;5056897;28;20225;-82
2022/10/07 13:12:14;;;;;;;7.10;1.88;;;20.30;1.00;;;;;;5055417;28;20208;-83
2022/10/07 13:14:57;;;;;;;5.18;1.85;;;20.00;1.00;;;;;;5046069;28;20294;-83
2022/10/07 13:17:38;;;;;;;8.80;1.85;;;20.40;1.00;;;;;;5059434;28;20215;-83
2022/10/07 13:20:16;;;;;;;5.72;1.95;;;19.90;1.00;;;;;;5070448;28;20210;-83
2022/10/07 13:22:46;;;;;;;4.82;1.80;;;19.90;1.00;;;;;;5079515;28;20228;-83
2022/10/07 13:25:17;;;;;;;8.57;1.80;;;19.60;1.00;;;;;;5079603;28;20228;-83